sensor_id;sensor_type;location;lat;lon;timestamp;temperature;humidity
22742;DHT22;11538;48.884;8.696;2023-03-01T00:01:40;0.60;99.90
22742;DHT22;11538;48.884;8.696;2023-03-01T00:04:07;0.60;99.90
22742;DHT22;11538;48.884;8.696;2023-03-01T00:06:35;0.60;99.90
22742;DHT22;11538;48.884;8.696;2023-03-01T00:09:03;0.60;99.90
22742;DHT22;11538;48.884;8.696;2023-03-01T00:11:31;0.70;99.90
22742;DHT22;11538;48.884;8.696;2023-03-01T00:14:01;0.60;99.90
22742;DHT22;11538;48.884;8.696;2023-03-01T00:16:31;0.70;99.90
22742;DHT22;11538;48.884;8.696;2023-03-01T00:19:02;0.70;99.90
22742;DHT22;11538;48.884;8.696;2023-03-01T00:21:29;0.70;99.90
22742;DHT22;11538;48.884;8.696;2023-03-01T00:23:57;0.70;99.90
22742;DHT22;11538;48.884;8.696;2023-03-01T00:26:25;0.60;99.90
22742;DHT22;11538;48.884;8.696;2023-03-01T00:28:53;0.60;99.90
22742;DHT22;11538;48.884;8.696;2023-03-01T00:31:26;0.50;99.90
22742;DHT22;11538;48.884;8.696;2023-03-01T00:33:57;0.50;99.90
22742;DHT22;11538;48.884;8.696;2023-03-01T00:36:28;0.40;99.90
22742;DHT22;11538;48.884;8.696;2023-03-01T00:39:01;0.40;99.90
22742;DHT22;11538;48.884;8.696;2023-03-01T00:41:30;0.30;99.90
22742;DHT22;11538;48.884;8.696;2023-03-01T00:43:57;0.30;99.90
22742;DHT22;11538;48.884;8.696;2023-03-01T00:46:25;0.30;99.90
22742;DHT22;11538;48.884;8.696;2023-03-01T00:48:53;0.20;99.90
22742;DHT22;11538;48.884;8.696;2023-03-01T00:51:24;0.20;99.90
22742;DHT22;11538;48.884;8.696;2023-03-01T00:53:55;0.20;99.90
22742;DHT22;11538;48.884;8.696;2023-03-01T00:56:24;0.20;99.90
22742;DHT22;11538;48.884;8.696;2023-03-01T00:58:54;0.30;99.90
22742;DHT22;11538;48.884;8.696;2023-03-01T01:01:23;0.20;99.90
22742;DHT22;11538;48.884;8.696;2023-03-01T01:03:55;0.20;99.90
22742;DHT22;11538;48.884;8.696;2023-03-01T01:06:34;0.20;99.90
22742;DHT22;11538;48.884;8.696;2023-03-01T01:09:06;0.30;99.90
22742;DHT22;11538;48.884;8.696;2023-03-01T01:11:34;0.30;99.90
22742;DHT22;11538;48.884;8.696;2023-03-01T01:14:03;0.30;99.90
22742;DHT22;11538;48.884;8.696;2023-03-01T01:16:30;0.30;99.90
22742;DHT22;11538;48.884;8.696;2023-03-01T01:18:57;0.30;99.90
22742;DHT22;11538;48.884;8.696;2023-03-01T01:21:25;0.30;99.90
22742;DHT22;11538;48.884;8.696;2023-03-01T01:23:53;0.30;99.90
22742;DHT22;11538;48.884;8.696;2023-03-01T01:28:51;0.30;99.90
22742;DHT22;11538;48.884;8.696;2023-03-01T01:31:19;0.30;99.90
22742;DHT22;11538;48.884;8.696;2023-03-01T01:33:47;0.20;99.90
22742;DHT22;11538;48.884;8.696;2023-03-01T01:36:17;0.20;99.90
22742;DHT22;11538;48.884;8.696;2023-03-01T01:38:44;0.20;99.90
22742;DHT22;11538;48.884;8.696;2023-03-01T01:41:13;0.20;99.90
22742;DHT22;11538;48.884;8.696;2023-03-01T01:43:43;0.20;99.90
22742;DHT22;11538;48.884;8.696;2023-03-01T01:46:31;0.20;99.90
22742;DHT22;11538;48.884;8.696;2023-03-01T01:49:03;0.20;99.90
22742;DHT22;11538;48.884;8.696;2023-03-01T01:51:40;0.20;99.90
22742;DHT22;11538;48.884;8.696;2023-03-01T01:54:14;0.20;99.90
22742;DHT22;11538;48.884;8.696;2023-03-01T01:56:53;0.20;99.90
22742;DHT22;11538;48.884;8.696;2023-03-01T01:59:24;0.20;99.90
22742;DHT22;11538;48.884;8.696;2023-03-01T02:01:53;0.20;99.90
22742;DHT22;11538;48.884;8.696;2023-03-01T02:04:21;0.10;99.90
22742;DHT22;11538;48.884;8.696;2023-03-01T02:06:57;0.10;99.90
22742;DHT22;11538;48.884;8.696;2023-03-01T02:09:28;0.10;99.90
22742;DHT22;11538;48.884;8.696;2023-03-01T02:11:57;0.10;99.90
22742;DHT22;11538;48.884;8.696;2023-03-01T02:14:24;0.10;99.90
22742;DHT22;11538;48.884;8.696;2023-03-01T02:16:51;0.00;99.90
22742;DHT22;11538;48.884;8.696;2023-03-01T02:19:30;0.00;99.90
22742;DHT22;11538;48.884;8.696;2023-03-01T02:22:27;0.00;99.90
22742;DHT22;11538;48.884;8.696;2023-03-01T02:30:48;-0.10;99.90
22742;DHT22;11538;48.884;8.696;2023-03-01T02:33:36;-0.10;99.90
22742;DHT22;11538;48.884;8.696;2023-03-01T02:36:09;-0.10;99.90
22742;DHT22;11538;48.884;8.696;2023-03-01T02:38:47;-0.20;99.90
22742;DHT22;11538;48.884;8.696;2023-03-01T02:41:20;-0.10;99.90
22742;DHT22;11538;48.884;8.696;2023-03-01T02:43:48;-0.20;99.90
22742;DHT22;11538;48.884;8.696;2023-03-01T02:46:20;-0.20;99.90
22742;DHT22;11538;48.884;8.696;2023-03-01T02:48:53;-0.10;99.90
22742;DHT22;11538;48.884;8.696;2023-03-01T02:57:42;-0.10;99.90
22742;DHT22;11538;48.884;8.696;2023-03-01T03:00:17;-0.10;99.90
22742;DHT22;11538;48.884;8.696;2023-03-01T03:02:49;-0.10;99.90
22742;DHT22;11538;48.884;8.696;2023-03-01T03:05:29;-0.20;99.90
22742;DHT22;11538;48.884;8.696;2023-03-01T03:08:00;-0.20;99.90
22742;DHT22;11538;48.884;8.696;2023-03-01T03:10:34;-0.30;99.90
22742;DHT22;11538;48.884;8.696;2023-03-01T03:13:08;-0.30;99.90
22742;DHT22;11538;48.884;8.696;2023-03-01T03:15:38;-0.40;99.90
22742;DHT22;11538;48.884;8.696;2023-03-01T03:18:09;-0.50;99.90
22742;DHT22;11538;48.884;8.696;2023-03-01T03:20:39;-0.50;99.90
22742;DHT22;11538;48.884;8.696;2023-03-01T03:23:07;-0.50;99.90
22742;DHT22;11538;48.884;8.696;2023-03-01T03:25:34;-0.40;99.90
22742;DHT22;11538;48.884;8.696;2023-03-01T03:28:05;-0.40;99.90
22742;DHT22;11538;48.884;8.696;2023-03-01T03:30:38;-0.40;99.90
22742;DHT22;11538;48.884;8.696;2023-03-01T03:33:07;-0.40;99.90
22742;DHT22;11538;48.884;8.696;2023-03-01T03:35:49;-0.40;99.90
22742;DHT22;11538;48.884;8.696;2023-03-01T03:38:18;-0.40;99.90
22742;DHT22;11538;48.884;8.696;2023-03-01T03:40:59;-0.40;99.90
22742;DHT22;11538;48.884;8.696;2023-03-01T03:43:36;-0.40;99.90
22742;DHT22;11538;48.884;8.696;2023-03-01T03:46:04;-0.40;99.90
22742;DHT22;11538;48.884;8.696;2023-03-01T03:48:39;-0.40;99.90
22742;DHT22;11538;48.884;8.696;2023-03-01T03:51:14;-0.40;99.90
22742;DHT22;11538;48.884;8.696;2023-03-01T03:53:44;-0.40;99.90
22742;DHT22;11538;48.884;8.696;2023-03-01T03:56:12;-0.40;99.90
22742;DHT22;11538;48.884;8.696;2023-03-01T03:58:39;-0.40;99.90
22742;DHT22;11538;48.884;8.696;2023-03-01T04:01:06;-0.30;99.90
22742;DHT22;11538;48.884;8.696;2023-03-01T04:03:33;-0.30;99.90
22742;DHT22;11538;48.884;8.696;2023-03-01T04:06:02;-0.30;99.90
22742;DHT22;11538;48.884;8.696;2023-03-01T04:08:30;-0.30;99.90
22742;DHT22;11538;48.884;8.696;2023-03-01T04:10:59;-0.30;99.90
22742;DHT22;11538;48.884;8.696;2023-03-01T04:13:48;-0.30;99.90
22742;DHT22;11538;48.884;8.696;2023-03-01T04:16:16;-0.30;99.90
22742;DHT22;11538;48.884;8.696;2023-03-01T04:18:44;-0.30;99.90
22742;DHT22;11538;48.884;8.696;2023-03-01T04:21:12;-0.30;99.90
22742;DHT22;11538;48.884;8.696;2023-03-01T04:23:39;-0.20;99.90
22742;DHT22;11538;48.884;8.696;2023-03-01T04:26:07;-0.20;99.90
22742;DHT22;11538;48.884;8.696;2023-03-01T04:28:42;-0.10;99.90
22742;DHT22;11538;48.884;8.696;2023-03-01T04:31:14;-0.10;99.90
22742;DHT22;11538;48.884;8.696;2023-03-01T04:33:52;0.00;99.90
22742;DHT22;11538;48.884;8.696;2023-03-01T04:36:23;0.00;99.90
22742;DHT22;11538;48.884;8.696;2023-03-01T04:38:52;0.00;99.90
22742;DHT22;11538;48.884;8.696;2023-03-01T04:41:22;0.00;99.90
22742;DHT22;11538;48.884;8.696;2023-03-01T04:43:53;0.00;99.90
22742;DHT22;11538;48.884;8.696;2023-03-01T04:46:21;0.10;99.90
22742;DHT22;11538;48.884;8.696;2023-03-01T04:48:48;0.10;99.90
22742;DHT22;11538;48.884;8.696;2023-03-01T04:51:15;0.10;99.90
22742;DHT22;11538;48.884;8.696;2023-03-01T04:53:43;0.10;99.90
22742;DHT22;11538;48.884;8.696;2023-03-01T04:56:11;0.10;99.90
22742;DHT22;11538;48.884;8.696;2023-03-01T04:58:40;0.20;99.90
22742;DHT22;11538;48.884;8.696;2023-03-01T05:01:13;0.20;99.90
22742;DHT22;11538;48.884;8.696;2023-03-01T05:03:44;0.20;99.90
22742;DHT22;11538;48.884;8.696;2023-03-01T05:06:13;0.20;99.90
22742;DHT22;11538;48.884;8.696;2023-03-01T05:08:41;0.30;99.90
22742;DHT22;11538;48.884;8.696;2023-03-01T05:11:09;0.30;99.90
22742;DHT22;11538;48.884;8.696;2023-03-01T05:13:38;0.40;99.90
22742;DHT22;11538;48.884;8.696;2023-03-01T05:16:06;0.40;99.90
22742;DHT22;11538;48.884;8.696;2023-03-01T05:18:38;0.40;99.90
22742;DHT22;11538;48.884;8.696;2023-03-01T05:21:08;0.40;99.90
22742;DHT22;11538;48.884;8.696;2023-03-01T05:23:37;0.50;99.90
22742;DHT22;11538;48.884;8.696;2023-03-01T05:26:06;0.50;99.90
22742;DHT22;11538;48.884;8.696;2023-03-01T05:28:48;0.50;99.90
22742;DHT22;11538;48.884;8.696;2023-03-01T05:31:15;0.60;99.90
22742;DHT22;11538;48.884;8.696;2023-03-01T05:33:42;0.60;99.90
22742;DHT22;11538;48.884;8.696;2023-03-01T05:36:10;0.60;99.90
22742;DHT22;11538;48.884;8.696;2023-03-01T05:38:37;0.60;99.90
22742;DHT22;11538;48.884;8.696;2023-03-01T05:41:04;0.60;99.90
22742;DHT22;11538;48.884;8.696;2023-03-01T05:43:31;0.60;99.90
22742;DHT22;11538;48.884;8.696;2023-03-01T05:46:00;0.60;99.90
22742;DHT22;11538;48.884;8.696;2023-03-01T05:48:27;0.60;99.90
22742;DHT22;11538;48.884;8.696;2023-03-01T05:50:54;0.60;99.90
22742;DHT22;11538;48.884;8.696;2023-03-01T05:53:21;0.60;99.90
22742;DHT22;11538;48.884;8.696;2023-03-01T05:55:48;0.50;99.90
22742;DHT22;11538;48.884;8.696;2023-03-01T05:58:19;0.60;99.90
22742;DHT22;11538;48.884;8.696;2023-03-01T06:00:48;0.60;99.90
22742;DHT22;11538;48.884;8.696;2023-03-01T06:03:16;0.60;99.90
22742;DHT22;11538;48.884;8.696;2023-03-01T06:05:44;0.60;99.90
22742;DHT22;11538;48.884;8.696;2023-03-01T06:08:12;0.60;99.90
22742;DHT22;11538;48.884;8.696;2023-03-01T06:10:40;0.60;99.90
22742;DHT22;11538;48.884;8.696;2023-03-01T06:13:07;0.60;99.90
22742;DHT22;11538;48.884;8.696;2023-03-01T06:15:35;0.60;99.90
22742;DHT22;11538;48.884;8.696;2023-03-01T06:18:02;0.60;99.90
22742;DHT22;11538;48.884;8.696;2023-03-01T06:20:29;0.60;99.90
22742;DHT22;11538;48.884;8.696;2023-03-01T06:22:56;0.60;99.90
22742;DHT22;11538;48.884;8.696;2023-03-01T06:25:25;0.60;99.90
22742;DHT22;11538;48.884;8.696;2023-03-01T06:27:56;0.60;99.90
22742;DHT22;11538;48.884;8.696;2023-03-01T06:30:24;0.60;99.90
22742;DHT22;11538;48.884;8.696;2023-03-01T06:32:53;0.60;99.90
22742;DHT22;11538;48.884;8.696;2023-03-01T06:35:27;0.60;99.90
22742;DHT22;11538;48.884;8.696;2023-03-01T06:37:57;0.60;99.90
22742;DHT22;11538;48.884;8.696;2023-03-01T06:40:26;0.70;99.90
22742;DHT22;11538;48.884;8.696;2023-03-01T06:42:53;0.70;99.90
22742;DHT22;11538;48.884;8.696;2023-03-01T06:45:24;0.70;99.90
22742;DHT22;11538;48.884;8.696;2023-03-01T06:47:51;0.70;99.90
22742;DHT22;11538;48.884;8.696;2023-03-01T06:50:18;0.80;99.90
22742;DHT22;11538;48.884;8.696;2023-03-01T06:52:45;0.80;99.90
22742;DHT22;11538;48.884;8.696;2023-03-01T06:55:12;0.80;99.90
22742;DHT22;11538;48.884;8.696;2023-03-01T06:57:39;0.80;99.90
22742;DHT22;11538;48.884;8.696;2023-03-01T07:00:07;0.80;99.90
22742;DHT22;11538;48.884;8.696;2023-03-01T07:02:35;0.90;99.90
22742;DHT22;11538;48.884;8.696;2023-03-01T07:05:02;0.90;99.90
22742;DHT22;11538;48.884;8.696;2023-03-01T07:07:29;0.90;99.90
22742;DHT22;11538;48.884;8.696;2023-03-01T07:09:56;0.90;99.90
22742;DHT22;11538;48.884;8.696;2023-03-01T07:12:23;0.90;99.90
22742;DHT22;11538;48.884;8.696;2023-03-01T07:14:50;1.00;99.90
22742;DHT22;11538;48.884;8.696;2023-03-01T07:17:18;1.00;99.90
22742;DHT22;11538;48.884;8.696;2023-03-01T07:19:46;1.00;99.90
22742;DHT22;11538;48.884;8.696;2023-03-01T07:22:13;1.10;99.90
22742;DHT22;11538;48.884;8.696;2023-03-01T07:24:42;1.10;99.90
22742;DHT22;11538;48.884;8.696;2023-03-01T07:27:09;1.10;99.90
22742;DHT22;11538;48.884;8.696;2023-03-01T07:29:36;1.20;99.90
22742;DHT22;11538;48.884;8.696;2023-03-01T07:32:06;1.20;99.90
22742;DHT22;11538;48.884;8.696;2023-03-01T07:34:33;1.20;99.90
22742;DHT22;11538;48.884;8.696;2023-03-01T07:37:00;1.30;99.90
22742;DHT22;11538;48.884;8.696;2023-03-01T07:39:27;1.30;99.90
22742;DHT22;11538;48.884;8.696;2023-03-01T07:41:54;1.40;99.90
22742;DHT22;11538;48.884;8.696;2023-03-01T07:44:24;1.40;99.90
22742;DHT22;11538;48.884;8.696;2023-03-01T07:46:51;1.40;99.90
22742;DHT22;11538;48.884;8.696;2023-03-01T07:49:22;1.40;99.90
22742;DHT22;11538;48.884;8.696;2023-03-01T07:51:49;1.50;99.90
22742;DHT22;11538;48.884;8.696;2023-03-01T07:54:16;1.50;99.90
22742;DHT22;11538;48.884;8.696;2023-03-01T07:56:44;1.60;99.90
22742;DHT22;11538;48.884;8.696;2023-03-01T07:59:11;1.70;99.90
22742;DHT22;11538;48.884;8.696;2023-03-01T08:01:38;1.70;99.90
22742;DHT22;11538;48.884;8.696;2023-03-01T08:04:06;1.80;99.90
22742;DHT22;11538;48.884;8.696;2023-03-01T08:06:35;1.90;99.90
22742;DHT22;11538;48.884;8.696;2023-03-01T08:09:05;1.90;99.90
22742;DHT22;11538;48.884;8.696;2023-03-01T08:11:32;2.00;99.90
22742;DHT22;11538;48.884;8.696;2023-03-01T08:13:59;2.00;99.90
22742;DHT22;11538;48.884;8.696;2023-03-01T08:16:25;2.10;99.90
22742;DHT22;11538;48.884;8.696;2023-03-01T08:18:52;2.20;99.90
22742;DHT22;11538;48.884;8.696;2023-03-01T08:21:23;2.20;99.90
22742;DHT22;11538;48.884;8.696;2023-03-01T08:23:49;2.40;99.90
22742;DHT22;11538;48.884;8.696;2023-03-01T08:26:21;2.50;99.90
22742;DHT22;11538;48.884;8.696;2023-03-01T08:28:49;2.60;99.90
22742;DHT22;11538;48.884;8.696;2023-03-01T08:33:50;3.00;99.90
22742;DHT22;11538;48.884;8.696;2023-03-01T08:36:23;3.20;99.90
22742;DHT22;11538;48.884;8.696;2023-03-01T08:38:56;3.40;99.90
22742;DHT22;11538;48.884;8.696;2023-03-01T08:41:23;3.60;99.90
22742;DHT22;11538;48.884;8.696;2023-03-01T08:43:51;3.80;99.90
22742;DHT22;11538;48.884;8.696;2023-03-01T08:46:19;3.90;99.90
22742;DHT22;11538;48.884;8.696;2023-03-01T08:48:46;4.00;99.90
22742;DHT22;11538;48.884;8.696;2023-03-01T08:51:15;4.20;99.90
22742;DHT22;11538;48.884;8.696;2023-03-01T08:53:47;4.40;99.90
22742;DHT22;11538;48.884;8.696;2023-03-01T08:56:15;4.50;99.90
22742;DHT22;11538;48.884;8.696;2023-03-01T08:58:44;4.60;99.90
22742;DHT22;11538;48.884;8.696;2023-03-01T09:01:15;4.80;99.90
22742;DHT22;11538;48.884;8.696;2023-03-01T09:03:44;4.90;99.90
22742;DHT22;11538;48.884;8.696;2023-03-01T09:06:13;5.00;99.90
22742;DHT22;11538;48.884;8.696;2023-03-01T09:08:42;5.10;99.90
22742;DHT22;11538;48.884;8.696;2023-03-01T09:11:16;5.30;99.90
22742;DHT22;11538;48.884;8.696;2023-03-01T09:13:46;5.40;99.90
22742;DHT22;11538;48.884;8.696;2023-03-01T09:16:15;5.60;99.90
22742;DHT22;11538;48.884;8.696;2023-03-01T09:18:45;5.80;99.90
22742;DHT22;11538;48.884;8.696;2023-03-01T09:21:16;6.00;99.90
22742;DHT22;11538;48.884;8.696;2023-03-01T09:23:57;6.10;99.90
22742;DHT22;11538;48.884;8.696;2023-03-01T09:26:24;6.20;99.90
22742;DHT22;11538;48.884;8.696;2023-03-01T09:28:53;6.40;99.90
22742;DHT22;11538;48.884;8.696;2023-03-01T09:31:23;6.50;99.90
22742;DHT22;11538;48.884;8.696;2023-03-01T09:33:52;6.70;99.90
22742;DHT22;11538;48.884;8.696;2023-03-01T09:36:23;6.70;99.90
22742;DHT22;11538;48.884;8.696;2023-03-01T09:38:55;6.80;99.90
22742;DHT22;11538;48.884;8.696;2023-03-01T09:41:59;6.90;99.90
22742;DHT22;11538;48.884;8.696;2023-03-01T09:44:40;7.00;99.90
22742;DHT22;11538;48.884;8.696;2023-03-01T09:47:20;7.10;99.90
22742;DHT22;11538;48.884;8.696;2023-03-01T09:50:18;7.20;99.90
22742;DHT22;11538;48.884;8.696;2023-03-01T09:53:10;7.30;99.90
22742;DHT22;11538;48.884;8.696;2023-03-01T09:55:50;7.50;99.90
22742;DHT22;11538;48.884;8.696;2023-03-01T09:58:41;7.70;99.90
22742;DHT22;11538;48.884;8.696;2023-03-01T10:09:42;8.00;99.90
22742;DHT22;11538;48.884;8.696;2023-03-01T10:15:06;8.20;99.90
22742;DHT22;11538;48.884;8.696;2023-03-01T10:18:01;8.30;99.90
22742;DHT22;11538;48.884;8.696;2023-03-01T10:20:48;8.30;99.90
22742;DHT22;11538;48.884;8.696;2023-03-01T10:23:22;8.50;99.90
22742;DHT22;11538;48.884;8.696;2023-03-01T10:26:20;8.50;99.90
22742;DHT22;11538;48.884;8.696;2023-03-01T10:29:10;8.60;99.90
22742;DHT22;11538;48.884;8.696;2023-03-01T10:31:39;8.80;99.90
22742;DHT22;11538;48.884;8.696;2023-03-01T10:34:12;8.80;99.90
22742;DHT22;11538;48.884;8.696;2023-03-01T10:36:42;8.90;99.90
22742;DHT22;11538;48.884;8.696;2023-03-01T10:39:14;8.90;99.90
22742;DHT22;11538;48.884;8.696;2023-03-01T10:44:37;9.10;99.90
22742;DHT22;11538;48.884;8.696;2023-03-01T10:47:23;9.20;99.90
22742;DHT22;11538;48.884;8.696;2023-03-01T10:49:54;9.40;99.90
22742;DHT22;11538;48.884;8.696;2023-03-01T10:52:43;9.60;99.90
22742;DHT22;11538;48.884;8.696;2023-03-01T10:55:34;9.70;99.90
22742;DHT22;11538;48.884;8.696;2023-03-01T10:58:21;9.90;99.90
22742;DHT22;11538;48.884;8.696;2023-03-01T11:03:44;10.00;99.90
22742;DHT22;11538;48.884;8.696;2023-03-01T11:08:42;10.30;99.90
22742;DHT22;11538;48.884;8.696;2023-03-01T11:14:15;10.40;99.90
22742;DHT22;11538;48.884;8.696;2023-03-01T11:17:11;10.60;99.90
22742;DHT22;11538;48.884;8.696;2023-03-01T11:19:41;10.80;99.90
22742;DHT22;11538;48.884;8.696;2023-03-01T11:22:19;10.90;99.90
22742;DHT22;11538;48.884;8.696;2023-03-01T11:24:53;11.10;99.90
22742;DHT22;11538;48.884;8.696;2023-03-01T11:27:40;11.20;99.90
22742;DHT22;11538;48.884;8.696;2023-03-01T11:32:56;11.50;99.90
22742;DHT22;11538;48.884;8.696;2023-03-01T11:35:32;11.70;99.90
22742;DHT22;11538;48.884;8.696;2023-03-01T11:38:22;11.90;99.90
22742;DHT22;11538;48.884;8.696;2023-03-01T11:41:20;12.00;99.90
22742;DHT22;11538;48.884;8.696;2023-03-01T11:44:14;12.20;99.90
22742;DHT22;11538;48.884;8.696;2023-03-01T11:47:04;12.40;99.90
22742;DHT22;11538;48.884;8.696;2023-03-01T12:02:07;13.40;99.90
22742;DHT22;11538;48.884;8.696;2023-03-01T12:05:18;13.60;99.90
22742;DHT22;11538;48.884;8.696;2023-03-01T12:08:42;13.80;99.90
22742;DHT22;11538;48.884;8.696;2023-03-01T12:11:38;14.00;99.90
22742;DHT22;11538;48.884;8.696;2023-03-01T12:23:22;14.60;99.90
22742;DHT22;11538;48.884;8.696;2023-03-01T12:26:16;14.70;99.90
22742;DHT22;11538;48.884;8.696;2023-03-01T12:35:46;15.30;99.90
22742;DHT22;11538;48.884;8.696;2023-03-01T12:38:32;15.60;99.90
22742;DHT22;11538;48.884;8.696;2023-03-01T12:41:35;15.80;99.90
22742;DHT22;11538;48.884;8.696;2023-03-01T12:47:51;16.00;99.90
22742;DHT22;11538;48.884;8.696;2023-03-01T12:50:44;16.20;99.90
22742;DHT22;11538;48.884;8.696;2023-03-01T12:53:25;16.40;99.90
22742;DHT22;11538;48.884;8.696;2023-03-01T12:55:58;16.50;99.90
22742;DHT22;11538;48.884;8.696;2023-03-01T12:59:02;16.60;99.90
22742;DHT22;11538;48.884;8.696;2023-03-01T13:15:45;17.10;99.90
22742;DHT22;11538;48.884;8.696;2023-03-01T13:26:14;17.10;99.90
22742;DHT22;11538;48.884;8.696;2023-03-01T13:28:50;17.00;99.90
22742;DHT22;11538;48.884;8.696;2023-03-01T13:41:54;17.00;99.90
22742;DHT22;11538;48.884;8.696;2023-03-01T13:44:33;17.00;99.90
22742;DHT22;11538;48.884;8.696;2023-03-01T13:49:47;17.00;99.90
22742;DHT22;11538;48.884;8.696;2023-03-01T13:58:47;16.90;99.90
22742;DHT22;11538;48.884;8.696;2023-03-01T14:01:31;16.90;99.90
22742;DHT22;11538;48.884;8.696;2023-03-01T14:04:01;16.90;99.90
22742;DHT22;11538;48.884;8.696;2023-03-01T14:06:32;16.90;99.90
22742;DHT22;11538;48.884;8.696;2023-03-01T14:09:16;16.80;99.90
22742;DHT22;11538;48.884;8.696;2023-03-01T14:12:02;16.70;99.90
22742;DHT22;11538;48.884;8.696;2023-03-01T14:20:37;16.30;99.90
22742;DHT22;11538;48.884;8.696;2023-03-01T14:23:11;16.10;99.90
22742;DHT22;11538;48.884;8.696;2023-03-01T14:25:49;16.00;99.90
22742;DHT22;11538;48.884;8.696;2023-03-01T14:28:33;15.80;99.90
22742;DHT22;11538;48.884;8.696;2023-03-01T14:31:30;15.60;99.90
22742;DHT22;11538;48.884;8.696;2023-03-01T14:34:23;15.30;99.90
22742;DHT22;11538;48.884;8.696;2023-03-01T14:36:51;14.90;99.90
22742;DHT22;11538;48.884;8.696;2023-03-01T14:39:25;14.60;99.90
22742;DHT22;11538;48.884;8.696;2023-03-01T14:41:53;14.10;99.90
22742;DHT22;11538;48.884;8.696;2023-03-01T14:44:22;13.70;99.90
22742;DHT22;11538;48.884;8.696;2023-03-01T14:46:55;13.30;99.90
22742;DHT22;11538;48.884;8.696;2023-03-01T14:49:29;12.90;99.90
22742;DHT22;11538;48.884;8.696;2023-03-01T14:52:07;12.50;99.90
22742;DHT22;11538;48.884;8.696;2023-03-01T14:54:47;12.20;99.90
22742;DHT22;11538;48.884;8.696;2023-03-01T14:57:23;11.90;99.90
22742;DHT22;11538;48.884;8.696;2023-03-01T14:59:55;11.70;99.90
22742;DHT22;11538;48.884;8.696;2023-03-01T15:02:28;11.50;99.90
22742;DHT22;11538;48.884;8.696;2023-03-01T15:04:59;11.30;99.90
22742;DHT22;11538;48.884;8.696;2023-03-01T15:07:31;11.10;99.90
22742;DHT22;11538;48.884;8.696;2023-03-01T15:10:03;11.00;99.90
22742;DHT22;11538;48.884;8.696;2023-03-01T15:12:37;10.80;99.90
22742;DHT22;11538;48.884;8.696;2023-03-01T15:15:34;10.70;99.90
22742;DHT22;11538;48.884;8.696;2023-03-01T15:18:22;10.50;99.90
22742;DHT22;11538;48.884;8.696;2023-03-01T15:20:54;10.40;99.90
22742;DHT22;11538;48.884;8.696;2023-03-01T15:23:32;10.30;99.90
22742;DHT22;11538;48.884;8.696;2023-03-01T15:26:01;10.20;99.90
22742;DHT22;11538;48.884;8.696;2023-03-01T15:28:41;10.10;99.90
22742;DHT22;11538;48.884;8.696;2023-03-01T15:33:43;10.00;99.90
22742;DHT22;11538;48.884;8.696;2023-03-01T15:36:41;9.90;99.90
22742;DHT22;11538;48.884;8.696;2023-03-01T15:39:33;9.80;99.90
22742;DHT22;11538;48.884;8.696;2023-03-01T15:42:07;9.70;99.90
22742;DHT22;11538;48.884;8.696;2023-03-01T15:44:41;9.70;99.90
22742;DHT22;11538;48.884;8.696;2023-03-01T15:47:49;9.70;99.90
22742;DHT22;11538;48.884;8.696;2023-03-01T15:53:15;9.50;99.90
22742;DHT22;11538;48.884;8.696;2023-03-01T15:55:42;9.40;99.90
22742;DHT22;11538;48.884;8.696;2023-03-01T15:58:20;9.30;99.90
22742;DHT22;11538;48.884;8.696;2023-03-01T16:00:49;9.30;99.90
22742;DHT22;11538;48.884;8.696;2023-03-01T16:03:28;9.20;99.90
22742;DHT22;11538;48.884;8.696;2023-03-01T16:05:57;9.20;99.90
22742;DHT22;11538;48.884;8.696;2023-03-01T16:08:24;9.10;99.90
22742;DHT22;11538;48.884;8.696;2023-03-01T16:10:51;9.10;99.90
22742;DHT22;11538;48.884;8.696;2023-03-01T16:13:22;9.00;99.90
22742;DHT22;11538;48.884;8.696;2023-03-01T16:15:49;9.00;99.90
22742;DHT22;11538;48.884;8.696;2023-03-01T16:18:16;8.90;99.90
22742;DHT22;11538;48.884;8.696;2023-03-01T16:20:43;8.90;99.90
22742;DHT22;11538;48.884;8.696;2023-03-01T16:23:10;8.80;99.90
22742;DHT22;11538;48.884;8.696;2023-03-01T16:25:37;8.80;99.90
22742;DHT22;11538;48.884;8.696;2023-03-01T16:28:05;8.80;99.90
22742;DHT22;11538;48.884;8.696;2023-03-01T16:30:39;8.70;99.90
22742;DHT22;11538;48.884;8.696;2023-03-01T16:33:07;8.70;99.90
22742;DHT22;11538;48.884;8.696;2023-03-01T16:35:55;8.60;99.90
22742;DHT22;11538;48.884;8.696;2023-03-01T16:38:22;8.60;99.90
22742;DHT22;11538;48.884;8.696;2023-03-01T16:40:51;8.50;99.90
22742;DHT22;11538;48.884;8.696;2023-03-01T16:43:18;8.50;99.90
22742;DHT22;11538;48.884;8.696;2023-03-01T16:45:46;8.40;99.90
22742;DHT22;11538;48.884;8.696;2023-03-01T16:48:13;8.40;99.90
22742;DHT22;11538;48.884;8.696;2023-03-01T16:50:40;8.30;99.90
22742;DHT22;11538;48.884;8.696;2023-03-01T16:53:07;8.30;99.90
22742;DHT22;11538;48.884;8.696;2023-03-01T16:55:34;8.20;99.90
22742;DHT22;11538;48.884;8.696;2023-03-01T16:58:02;8.20;99.90
22742;DHT22;11538;48.884;8.696;2023-03-01T17:00:30;8.10;99.90
22742;DHT22;11538;48.884;8.696;2023-03-01T17:02:57;8.10;99.90
22742;DHT22;11538;48.884;8.696;2023-03-01T17:05:24;8.00;99.90
22742;DHT22;11538;48.884;8.696;2023-03-01T17:07:52;8.00;99.90
22742;DHT22;11538;48.884;8.696;2023-03-01T17:10:22;7.90;99.90
22742;DHT22;11538;48.884;8.696;2023-03-01T17:12:49;7.90;99.90
22742;DHT22;11538;48.884;8.696;2023-03-01T17:15:17;7.90;99.90
22742;DHT22;11538;48.884;8.696;2023-03-01T17:17:44;7.80;99.90
22742;DHT22;11538;48.884;8.696;2023-03-01T17:20:11;7.70;99.90
22742;DHT22;11538;48.884;8.696;2023-03-01T17:22:38;7.70;99.90
22742;DHT22;11538;48.884;8.696;2023-03-01T17:25:09;7.70;99.90
22742;DHT22;11538;48.884;8.696;2023-03-01T17:27:37;7.60;99.90
22742;DHT22;11538;48.884;8.696;2023-03-01T17:30:08;7.60;99.90
22742;DHT22;11538;48.884;8.696;2023-03-01T17:32:36;7.50;99.90
22742;DHT22;11538;48.884;8.696;2023-03-01T17:35:04;7.50;99.90
22742;DHT22;11538;48.884;8.696;2023-03-01T17:37:31;7.40;99.90
22742;DHT22;11538;48.884;8.696;2023-03-01T17:39:58;7.40;99.90
22742;DHT22;11538;48.884;8.696;2023-03-01T17:42:25;7.30;99.90
22742;DHT22;11538;48.884;8.696;2023-03-01T17:44:52;7.30;99.90
22742;DHT22;11538;48.884;8.696;2023-03-01T17:47:21;7.20;99.90
22742;DHT22;11538;48.884;8.696;2023-03-01T17:49:47;7.10;99.90
22742;DHT22;11538;48.884;8.696;2023-03-01T17:52:16;7.10;99.90
22742;DHT22;11538;48.884;8.696;2023-03-01T17:54:43;7.00;99.90
22742;DHT22;11538;48.884;8.696;2023-03-01T17:57:10;6.90;99.90
22742;DHT22;11538;48.884;8.696;2023-03-01T17:59:37;6.90;99.90
22742;DHT22;11538;48.884;8.696;2023-03-01T18:02:04;6.80;99.90
22742;DHT22;11538;48.884;8.696;2023-03-01T18:04:31;6.70;99.90
22742;DHT22;11538;48.884;8.696;2023-03-01T18:06:58;6.60;99.90
22742;DHT22;11538;48.884;8.696;2023-03-01T18:09:26;6.60;99.90
22742;DHT22;11538;48.884;8.696;2023-03-01T18:11:54;6.40;99.90
22742;DHT22;11538;48.884;8.696;2023-03-01T18:14:21;6.40;99.90
22742;DHT22;11538;48.884;8.696;2023-03-01T18:16:48;6.30;99.90
22742;DHT22;11538;48.884;8.696;2023-03-01T18:19:15;6.20;99.90
22742;DHT22;11538;48.884;8.696;2023-03-01T18:21:42;6.20;99.90
22742;DHT22;11538;48.884;8.696;2023-03-01T18:24:09;6.10;99.90